sensor_id;sensor_type;location;lat;lon;timestamp;P1;durP1;ratioP1;P2;durP2;ratioP2
980;SDS011;479;53.514;9.994;2022-11-12T00:01:38;7.90;;;7.00;;
980;SDS011;479;53.514;9.994;2022-11-12T00:04:23;10.53;;;8.03;;
980;SDS011;479;53.514;9.994;2022-11-12T00:07:10;8.97;;;6.77;;
980;SDS011;479;53.514;9.994;2022-11-12T00:09:56;9.77;;;7.77;;
980;SDS011;479;53.514;9.994;2022-11-12T00:12:41;8.83;;;7.47;;
980;SDS011;479;53.514;9.994;2022-11-12T00:15:26;9.80;;;8.03;;
980;SDS011;479;53.514;9.994;2022-11-12T00:18:12;11.30;;;6.70;;
980;SDS011;479;53.514;9.994;2022-11-12T00:20:57;12.03;;;8.20;;
980;SDS011;479;53.514;9.994;2022-11-12T00:23:44;9.13;;;6.30;;
980;SDS011;479;53.514;9.994;2022-11-12T00:26:29;10.27;;;6.97;;
980;SDS011;479;53.514;9.994;2022-11-12T00:29:14;12.93;;;6.97;;
980;SDS011;479;53.514;9.994;2022-11-12T00:32:00;8.87;;;6.87;;
980;SDS011;479;53.514;9.994;2022-11-12T00:34:45;9.70;;;6.63;;
980;SDS011;479;53.514;9.994;2022-11-12T00:37:30;6.67;;;5.97;;
980;SDS011;479;53.514;9.994;2022-11-12T00:40:17;10.60;;;6.30;;
980;SDS011;479;53.514;9.994;2022-11-12T00:43:03;8.47;;;5.90;;
980;SDS011;479;53.514;9.994;2022-11-12T00:45:48;10.13;;;5.60;;
980;SDS011;479;53.514;9.994;2022-11-12T00:48:34;12.90;;;10.13;;
980;SDS011;479;53.514;9.994;2022-11-12T00:51:19;11.23;;;8.60;;
980;SDS011;479;53.514;9.994;2022-11-12T00:54:04;10.33;;;8.30;;
980;SDS011;479;53.514;9.994;2022-11-12T00:56:51;13.73;;;10.03;;
980;SDS011;479;53.514;9.994;2022-11-12T00:59:37;7.30;;;6.30;;
980;SDS011;479;53.514;9.994;2022-11-12T01:02:22;9.17;;;6.30;;
980;SDS011;479;53.514;9.994;2022-11-12T01:05:08;7.83;;;6.03;;
980;SDS011;479;53.514;9.994;2022-11-12T01:07:54;8.63;;;5.73;;
980;SDS011;479;53.514;9.994;2022-11-12T01:10:39;9.70;;;7.00;;
980;SDS011;479;53.514;9.994;2022-11-12T01:13:26;6.60;;;5.90;;
980;SDS011;479;53.514;9.994;2022-11-12T01:16:13;6.03;;;5.37;;
980;SDS011;479;53.514;9.994;2022-11-12T01:19:00;6.80;;;6.20;;
980;SDS011;479;53.514;9.994;2022-11-12T01:21:47;8.77;;;5.40;;
980;SDS011;479;53.514;9.994;2022-11-12T01:24:33;9.70;;;5.73;;
980;SDS011;479;53.514;9.994;2022-11-12T01:27:18;7.07;;;6.10;;
980;SDS011;479;53.514;9.994;2022-11-12T01:30:05;9.27;;;5.37;;
980;SDS011;479;53.514;9.994;2022-11-12T01:32:51;10.90;;;7.00;;
980;SDS011;479;53.514;9.994;2022-11-12T01:35:36;8.60;;;6.87;;
980;SDS011;479;53.514;9.994;2022-11-12T01:38:22;7.73;;;6.40;;
980;SDS011;479;53.514;9.994;2022-11-12T01:41:08;9.27;;;6.60;;
980;SDS011;479;53.514;9.994;2022-11-12T01:44:07;7.07;;;6.37;;
980;SDS011;479;53.514;9.994;2022-11-12T01:47:01;25.70;;;10.80;;
980;SDS011;479;53.514;9.994;2022-11-12T01:49:50;9.43;;;7.47;;
980;SDS011;479;53.514;9.994;2022-11-12T01:52:38;6.87;;;5.87;;
980;SDS011;479;53.514;9.994;2022-11-12T01:55:27;7.77;;;6.00;;
980;SDS011;479;53.514;9.994;2022-11-12T01:58:16;8.17;;;6.03;;
980;SDS011;479;53.514;9.994;2022-11-12T02:01:04;8.17;;;7.30;;
980;SDS011;479;53.514;9.994;2022-11-12T02:03:51;7.90;;;6.07;;
980;SDS011;479;53.514;9.994;2022-11-12T02:06:37;8.77;;;7.10;;
980;SDS011;479;53.514;9.994;2022-11-12T02:09:25;6.90;;;6.20;;
980;SDS011;479;53.514;9.994;2022-11-12T02:12:11;9.33;;;5.77;;
980;SDS011;479;53.514;9.994;2022-11-12T02:15:16;7.07;;;6.20;;
980;SDS011;479;53.514;9.994;2022-11-12T02:18:01;7.87;;;5.63;;
980;SDS011;479;53.514;9.994;2022-11-12T02:20:52;6.93;;;6.07;;
980;SDS011;479;53.514;9.994;2022-11-12T02:23:42;8.80;;;7.13;;
980;SDS011;479;53.514;9.994;2022-11-12T02:26:28;11.30;;;7.30;;
980;SDS011;479;53.514;9.994;2022-11-12T02:29:15;7.33;;;6.63;;
980;SDS011;479;53.514;9.994;2022-11-12T02:32:01;7.83;;;6.17;;
980;SDS011;479;53.514;9.994;2022-11-12T02:34:46;7.40;;;6.10;;
980;SDS011;479;53.514;9.994;2022-11-12T02:37:32;9.83;;;6.40;;
980;SDS011;479;53.514;9.994;2022-11-12T02:40:19;9.40;;;7.07;;
980;SDS011;479;53.514;9.994;2022-11-12T02:43:05;7.13;;;6.33;;
980;SDS011;479;53.514;9.994;2022-11-12T02:45:50;6.87;;;5.73;;
980;SDS011;479;53.514;9.994;2022-11-12T02:48:36;10.20;;;7.10;;
980;SDS011;479;53.514;9.994;2022-11-12T02:51:21;7.53;;;6.50;;
980;SDS011;479;53.514;9.994;2022-11-12T02:54:06;8.10;;;6.47;;
980;SDS011;479;53.514;9.994;2022-11-12T02:56:53;7.53;;;6.73;;
980;SDS011;479;53.514;9.994;2022-11-12T02:59:39;8.97;;;6.63;;
980;SDS011;479;53.514;9.994;2022-11-12T03:02:24;6.80;;;5.73;;
980;SDS011;479;53.514;9.994;2022-11-12T03:05:10;7.60;;;5.63;;
980;SDS011;479;53.514;9.994;2022-11-12T03:07:56;10.13;;;5.60;;
980;SDS011;479;53.514;9.994;2022-11-12T03:10:42;6.47;;;5.60;;
980;SDS011;479;53.514;9.994;2022-11-12T03:13:29;7.07;;;6.10;;
980;SDS011;479;53.514;9.994;2022-11-12T03:16:14;7.27;;;6.20;;
980;SDS011;479;53.514;9.994;2022-11-12T03:19:00;9.67;;;5.63;;
980;SDS011;479;53.514;9.994;2022-11-12T03:21:45;8.50;;;5.90;;
980;SDS011;479;53.514;9.994;2022-11-12T03:24:30;6.57;;;5.93;;
980;SDS011;479;53.514;9.994;2022-11-12T03:27:16;20.77;;;6.30;;
980;SDS011;479;53.514;9.994;2022-11-12T03:30:03;8.43;;;5.40;;
980;SDS011;479;53.514;9.994;2022-11-12T03:32:49;8.20;;;5.73;;
980;SDS011;479;53.514;9.994;2022-11-12T03:35:34;6.10;;;5.50;;
980;SDS011;479;53.514;9.994;2022-11-12T03:38:20;7.00;;;6.30;;
980;SDS011;479;53.514;9.994;2022-11-12T03:41:05;5.83;;;4.77;;
980;SDS011;479;53.514;9.994;2022-11-12T03:43:51;6.97;;;6.20;;
980;SDS011;479;53.514;9.994;2022-11-12T03:46:37;9.90;;;6.57;;
980;SDS011;479;53.514;9.994;2022-11-12T03:49:23;9.10;;;6.23;;
980;SDS011;479;53.514;9.994;2022-11-12T03:52:08;8.70;;;6.63;;
980;SDS011;479;53.514;9.994;2022-11-12T03:54:53;8.77;;;6.33;;
980;SDS011;479;53.514;9.994;2022-11-12T03:57:38;8.50;;;6.17;;
980;SDS011;479;53.514;9.994;2022-11-12T04:00:25;9.73;;;6.20;;
980;SDS011;479;53.514;9.994;2022-11-12T04:03:13;13.40;;;5.80;;
980;SDS011;479;53.514;9.994;2022-11-12T04:05:58;11.02;;;7.20;;
980;SDS011;479;53.514;9.994;2022-11-12T04:09:02;8.27;;;6.17;;
980;SDS011;479;53.514;9.994;2022-11-12T04:11:47;6.50;;;5.90;;
980;SDS011;479;53.514;9.994;2022-11-12T04:14:32;11.20;;;6.73;;
980;SDS011;479;53.514;9.994;2022-11-12T04:17:18;8.67;;;7.30;;
980;SDS011;479;53.514;9.994;2022-11-12T04:20:22;6.10;;;5.53;;
980;SDS011;479;53.514;9.994;2022-11-12T04:23:26;9.65;;;8.65;;
980;SDS011;479;53.514;9.994;2022-11-12T04:26:11;8.30;;;6.00;;
980;SDS011;479;53.514;9.994;2022-11-12T04:29:08;10.50;;;7.33;;
980;SDS011;479;53.514;9.994;2022-11-12T04:32:11;7.87;;;6.23;;
980;SDS011;479;53.514;9.994;2022-11-12T04:34:57;8.43;;;6.90;;
980;SDS011;479;53.514;9.994;2022-11-12T04:37:44;10.50;;;6.47;;
980;SDS011;479;53.514;9.994;2022-11-12T04:40:31;9.00;;;7.63;;
980;SDS011;479;53.514;9.994;2022-11-12T04:43:34;7.20;;;6.10;;
980;SDS011;479;53.514;9.994;2022-11-12T04:46:37;10.00;;;6.70;;
980;SDS011;479;53.514;9.994;2022-11-12T04:49:23;9.07;;;6.93;;
980;SDS011;479;53.514;9.994;2022-11-12T04:52:08;8.70;;;7.80;;
980;SDS011;479;53.514;9.994;2022-11-12T04:54:55;10.90;;;7.22;;
980;SDS011;479;53.514;9.994;2022-11-12T04:57:41;12.00;;;7.03;;
980;SDS011;479;53.514;9.994;2022-11-12T05:00:27;10.55;;;7.68;;
980;SDS011;479;53.514;9.994;2022-11-12T05:03:12;11.83;;;7.27;;
980;SDS011;479;53.514;9.994;2022-11-12T05:06:01;11.43;;;7.10;;
980;SDS011;479;53.514;9.994;2022-11-12T05:08:47;12.83;;;8.00;;
980;SDS011;479;53.514;9.994;2022-11-12T05:11:34;10.30;;;6.80;;
980;SDS011;479;53.514;9.994;2022-11-12T05:14:19;8.38;;;7.50;;
980;SDS011;479;53.514;9.994;2022-11-12T05:17:05;10.07;;;6.72;;
980;SDS011;479;53.514;9.994;2022-11-12T05:19:50;9.15;;;7.45;;
980;SDS011;479;53.514;9.994;2022-11-12T05:22:36;12.97;;;8.30;;
980;SDS011;479;53.514;9.994;2022-11-12T05:25:22;9.23;;;7.45;;
980;SDS011;479;53.514;9.994;2022-11-12T05:28:08;10.38;;;8.48;;
980;SDS011;479;53.514;9.994;2022-11-12T05:30:53;10.35;;;7.28;;
980;SDS011;479;53.514;9.994;2022-11-12T05:33:39;10.10;;;7.85;;
980;SDS011;479;53.514;9.994;2022-11-12T05:36:24;13.00;;;7.45;;
980;SDS011;479;53.514;9.994;2022-11-12T05:39:10;14.30;;;8.10;;
980;SDS011;479;53.514;9.994;2022-11-12T05:41:55;8.40;;;7.25;;
980;SDS011;479;53.514;9.994;2022-11-12T05:44:42;8.63;;;7.30;;
980;SDS011;479;53.514;9.994;2022-11-12T05:47:27;8.98;;;7.25;;
980;SDS011;479;53.514;9.994;2022-11-12T05:50:13;8.50;;;6.40;;
980;SDS011;479;53.514;9.994;2022-11-12T05:52:58;13.45;;;7.55;;
980;SDS011;479;53.514;9.994;2022-11-12T05:55:43;9.02;;;7.38;;
980;SDS011;479;53.514;9.994;2022-11-12T05:58:29;9.23;;;7.75;;
980;SDS011;479;53.514;9.994;2022-11-12T06:01:16;10.13;;;7.32;;
980;SDS011;479;53.514;9.994;2022-11-12T06:04:01;11.80;;;7.95;;
980;SDS011;479;53.514;9.994;2022-11-12T06:06:46;9.10;;;6.90;;
980;SDS011;479;53.514;9.994;2022-11-12T06:09:32;8.57;;;6.10;;
980;SDS011;479;53.514;9.994;2022-11-12T06:12:17;10.85;;;7.80;;
980;SDS011;479;53.514;9.994;2022-11-12T06:15:03;11.68;;;7.13;;
980;SDS011;479;53.514;9.994;2022-11-12T06:17:50;8.30;;;6.85;;
980;SDS011;479;53.514;9.994;2022-11-12T06:20:35;10.20;;;7.00;;
980;SDS011;479;53.514;9.994;2022-11-12T06:23:21;10.90;;;7.18;;
980;SDS011;479;53.514;9.994;2022-11-12T06:26:06;8.60;;;7.00;;
980;SDS011;479;53.514;9.994;2022-11-12T06:28:52;8.18;;;6.72;;
980;SDS011;479;53.514;9.994;2022-11-12T06:31:37;6.47;;;5.68;;
980;SDS011;479;53.514;9.994;2022-11-12T06:34:24;8.30;;;6.30;;
980;SDS011;479;53.514;9.994;2022-11-12T06:37:09;6.95;;;6.25;;
980;SDS011;479;53.514;9.994;2022-11-12T06:39:55;11.82;;;8.05;;
980;SDS011;479;53.514;9.994;2022-11-12T06:42:40;9.05;;;7.25;;
980;SDS011;479;53.514;9.994;2022-11-12T06:45:25;7.88;;;7.10;;
980;SDS011;479;53.514;9.994;2022-11-12T06:48:12;8.18;;;6.50;;
980;SDS011;479;53.514;9.994;2022-11-12T06:51:04;9.32;;;7.57;;
980;SDS011;479;53.514;9.994;2022-11-12T06:53:54;7.22;;;6.45;;
980;SDS011;479;53.514;9.994;2022-11-12T06:56:40;11.15;;;7.60;;
980;SDS011;479;53.514;9.994;2022-11-12T06:59:25;22.17;;;7.38;;
980;SDS011;479;53.514;9.994;2022-11-12T07:02:10;9.55;;;8.35;;
980;SDS011;479;53.514;9.994;2022-11-12T07:04:55;8.02;;;6.65;;
980;SDS011;479;53.514;9.994;2022-11-12T07:07:42;10.13;;;7.00;;
980;SDS011;479;53.514;9.994;2022-11-12T07:10:27;13.27;;;7.35;;
980;SDS011;479;53.514;9.994;2022-11-12T07:13:13;9.10;;;7.40;;
980;SDS011;479;53.514;9.994;2022-11-12T07:15:59;8.48;;;7.22;;
980;SDS011;479;53.514;9.994;2022-11-12T07:18:45;9.52;;;6.45;;
980;SDS011;479;53.514;9.994;2022-11-12T07:21:31;15.85;;;11.10;;
980;SDS011;479;53.514;9.994;2022-11-12T07:24:18;7.30;;;6.60;;
980;SDS011;479;53.514;9.994;2022-11-12T07:27:03;5.70;;;5.20;;
980;SDS011;479;53.514;9.994;2022-11-12T07:29:48;6.97;;;6.28;;
980;SDS011;479;53.514;9.994;2022-11-12T07:32:33;11.82;;;7.90;;
980;SDS011;479;53.514;9.994;2022-11-12T07:35:19;9.80;;;7.35;;
980;SDS011;479;53.514;9.994;2022-11-12T07:38:04;11.23;;;7.32;;
980;SDS011;479;53.514;9.994;2022-11-12T07:40:51;8.25;;;6.65;;
980;SDS011;479;53.514;9.994;2022-11-12T07:43:36;7.55;;;6.35;;
980;SDS011;479;53.514;9.994;2022-11-12T07:46:23;8.90;;;6.65;;
980;SDS011;479;53.514;9.994;2022-11-12T07:49:10;12.10;;;7.40;;
980;SDS011;479;53.514;9.994;2022-11-12T07:51:55;8.30;;;6.65;;
980;SDS011;479;53.514;9.994;2022-11-12T07:54:41;8.98;;;6.88;;
980;SDS011;479;53.514;9.994;2022-11-12T07:57:27;7.38;;;6.00;;
980;SDS011;479;53.514;9.994;2022-11-12T08:00:16;10.87;;;6.90;;
980;SDS011;479;53.514;9.994;2022-11-12T08:03:02;7.83;;;6.43;;
980;SDS011;479;53.514;9.994;2022-11-12T08:05:48;8.43;;;7.00;;
980;SDS011;479;53.514;9.994;2022-11-12T08:08:33;8.50;;;7.60;;
980;SDS011;479;53.514;9.994;2022-11-12T08:11:18;8.50;;;6.87;;
980;SDS011;479;53.514;9.994;2022-11-12T08:14:06;8.13;;;7.00;;
980;SDS011;479;53.514;9.994;2022-11-12T08:16:51;9.10;;;6.83;;
980;SDS011;479;53.514;9.994;2022-11-12T08:19:37;7.40;;;6.63;;
980;SDS011;479;53.514;9.994;2022-11-12T08:22:22;8.73;;;7.47;;
980;SDS011;479;53.514;9.994;2022-11-12T08:25:07;8.70;;;5.73;;
980;SDS011;479;53.514;9.994;2022-11-12T08:27:56;7.73;;;6.63;;
980;SDS011;479;53.514;9.994;2022-11-12T08:30:43;7.50;;;6.70;;
980;SDS011;479;53.514;9.994;2022-11-12T08:33:28;7.73;;;6.40;;
980;SDS011;479;53.514;9.994;2022-11-12T08:36:14;12.43;;;8.90;;
980;SDS011;479;53.514;9.994;2022-11-12T08:39:01;12.43;;;7.60;;
980;SDS011;479;53.514;9.994;2022-11-12T08:41:46;8.23;;;6.80;;
980;SDS011;479;53.514;9.994;2022-11-12T08:44:31;8.83;;;6.77;;
980;SDS011;479;53.514;9.994;2022-11-12T08:47:18;10.13;;;6.33;;
980;SDS011;479;53.514;9.994;2022-11-12T08:50:03;8.27;;;5.53;;
980;SDS011;479;53.514;9.994;2022-11-12T08:52:49;7.57;;;5.83;;
980;SDS011;479;53.514;9.994;2022-11-12T08:55:35;7.60;;;6.57;;
980;SDS011;479;53.514;9.994;2022-11-12T08:58:21;9.20;;;6.47;;
980;SDS011;479;53.514;9.994;2022-11-12T09:01:07;6.40;;;5.80;;
980;SDS011;479;53.514;9.994;2022-11-12T09:03:54;8.47;;;6.20;;
980;SDS011;479;53.514;9.994;2022-11-12T09:06:39;5.07;;;4.60;;
980;SDS011;479;53.514;9.994;2022-11-12T09:09:25;5.93;;;5.40;;
980;SDS011;479;53.514;9.994;2022-11-12T09:12:11;6.53;;;5.23;;
980;SDS011;479;53.514;9.994;2022-11-12T09:15:01;7.57;;;6.23;;
980;SDS011;479;53.514;9.994;2022-11-12T09:17:47;6.10;;;5.40;;
980;SDS011;479;53.514;9.994;2022-11-12T09:20:39;7.53;;;5.37;;
980;SDS011;479;53.514;9.994;2022-11-12T09:23:25;8.30;;;6.33;;
980;SDS011;479;53.514;9.994;2022-11-12T09:26:11;6.13;;;5.50;;
980;SDS011;479;53.514;9.994;2022-11-12T09:28:56;5.97;;;5.37;;
980;SDS011;479;53.514;9.994;2022-11-12T09:31:42;6.53;;;5.97;;
980;SDS011;479;53.514;9.994;2022-11-12T09:34:27;6.70;;;5.60;;
980;SDS011;479;53.514;9.994;2022-11-12T09:37:13;6.23;;;5.63;;
980;SDS011;479;53.514;9.994;2022-11-12T09:39:59;6.60;;;5.43;;
980;SDS011;479;53.514;9.994;2022-11-12T09:42:45;7.43;;;6.67;;
980;SDS011;479;53.514;9.994;2022-11-12T09:45:35;7.20;;;6.47;;
980;SDS011;479;53.514;9.994;2022-11-12T09:48:22;7.83;;;6.40;;
980;SDS011;479;53.514;9.994;2022-11-12T09:51:11;5.70;;;5.20;;
980;SDS011;479;53.514;9.994;2022-11-12T09:54:03;5.53;;;5.03;;
980;SDS011;479;53.514;9.994;2022-11-12T09:56:56;7.17;;;6.40;;
980;SDS011;479;53.514;9.994;2022-11-12T09:59:42;6.40;;;5.17;;
980;SDS011;479;53.514;9.994;2022-11-12T10:02:30;6.40;;;5.70;;
980;SDS011;479;53.514;9.994;2022-11-12T10:05:22;6.20;;;5.13;;
980;SDS011;479;53.514;9.994;2022-11-12T10:08:21;7.00;;;6.17;;
980;SDS011;479;53.514;9.994;2022-11-12T10:11:34;9.73;;;6.50;;
980;SDS011;479;53.514;9.994;2022-11-12T10:14:58;5.93;;;5.03;;
980;SDS011;479;53.514;9.994;2022-11-12T10:18:32;7.80;;;6.37;;
980;SDS011;479;53.514;9.994;2022-11-12T10:21:28;6.50;;;5.80;;
980;SDS011;479;53.514;9.994;2022-11-12T10:24:19;8.30;;;5.13;;
980;SDS011;479;53.514;9.994;2022-11-12T10:27:11;8.73;;;6.13;;
980;SDS011;479;53.514;9.994;2022-11-12T10:30:00;6.23;;;5.60;;
980;SDS011;479;53.514;9.994;2022-11-12T10:32:48;16.90;;;13.20;;
980;SDS011;479;53.514;9.994;2022-11-12T10:35:35;5.90;;;5.40;;
980;SDS011;479;53.514;9.994;2022-11-12T10:38:22;6.70;;;5.83;;
980;SDS011;479;53.514;9.994;2022-11-12T10:41:17;7.53;;;6.33;;
980;SDS011;479;53.514;9.994;2022-11-12T10:44:09;7.10;;;5.80;;
980;SDS011;479;53.514;9.994;2022-11-12T10:50:11;7.70;;;6.90;;
980;SDS011;479;53.514;9.994;2022-11-12T10:53:02;9.50;;;6.93;;
980;SDS011;479;53.514;9.994;2022-11-12T10:55:56;10.60;;;8.97;;
980;SDS011;479;53.514;9.994;2022-11-12T10:58:43;8.67;;;7.17;;
980;SDS011;479;53.514;9.994;2022-11-12T11:01:29;7.33;;;6.30;;
980;SDS011;479;53.514;9.994;2022-11-12T11:04:19;8.47;;;6.60;;
980;SDS011;479;53.514;9.994;2022-11-12T11:07:15;6.77;;;6.03;;
980;SDS011;479;53.514;9.994;2022-11-12T11:10:11;7.30;;;6.07;;
980;SDS011;479;53.514;9.994;2022-11-12T11:13:07;7.83;;;6.27;;
980;SDS011;479;53.514;9.994;2022-11-12T11:16:00;7.73;;;6.67;;
980;SDS011;479;53.514;9.994;2022-11-12T11:18:48;5.93;;;5.33;;
980;SDS011;479;53.514;9.994;2022-11-12T11:21:45;7.07;;;6.00;;
980;SDS011;479;53.514;9.994;2022-11-12T11:24:43;7.10;;;6.00;;
980;SDS011;479;53.514;9.994;2022-11-12T11:27:39;9.00;;;8.10;;
980;SDS011;479;53.514;9.994;2022-11-12T11:30:31;14.17;;;9.47;;
980;SDS011;479;53.514;9.994;2022-11-12T11:33:20;11.63;;;8.70;;
980;SDS011;479;53.514;9.994;2022-11-12T11:36:17;9.57;;;6.67;;
980;SDS011;479;53.514;9.994;2022-11-12T11:39:11;8.93;;;7.40;;
980;SDS011;479;53.514;9.994;2022-11-12T11:42:07;8.90;;;6.10;;
980;SDS011;479;53.514;9.994;2022-11-12T11:45:02;8.93;;;6.10;;
980;SDS011;479;53.514;9.994;2022-11-12T11:48:00;7.17;;;6.20;;
980;SDS011;479;53.514;9.994;2022-11-12T11:50:55;7.70;;;6.00;;
980;SDS011;479;53.514;9.994;2022-11-12T11:53:48;12.70;;;6.60;;
980;SDS011;479;53.514;9.994;2022-11-12T11:56:43;12.50;;;6.13;;
980;SDS011;479;53.514;9.994;2022-11-12T11:59:31;7.83;;;6.13;;
980;SDS011;479;53.514;9.994;2022-11-12T12:02:38;6.97;;;5.90;;
980;SDS011;479;53.514;9.994;2022-11-12T12:05:39;7.17;;;5.90;;
980;SDS011;479;53.514;9.994;2022-11-12T12:08:30;9.30;;;6.43;;
980;SDS011;479;53.514;9.994;2022-11-12T12:11:25;7.00;;;5.70;;
980;SDS011;479;53.514;9.994;2022-11-12T12:14:19;11.50;;;6.30;;
980;SDS011;479;53.514;9.994;2022-11-12T12:17:22;7.50;;;5.73;;
980;SDS011;479;53.514;9.994;2022-11-12T12:20:20;6.33;;;5.73;;
980;SDS011;479;53.514;9.994;2022-11-12T12:23:14;8.13;;;6.70;;
980;SDS011;479;53.514;9.994;2022-11-12T12:26:08;6.73;;;5.70;;
980;SDS011;479;53.514;9.994;2022-11-12T12:29:00;7.80;;;6.50;;
980;SDS011;479;53.514;9.994;2022-11-12T12:31:52;7.80;;;6.10;;
980;SDS011;479;53.514;9.994;2022-11-12T12:34:45;7.00;;;6.10;;
980;SDS011;479;53.514;9.994;2022-11-12T12:37:34;11.13;;;6.67;;
980;SDS011;479;53.514;9.994;2022-11-12T12:40:27;7.70;;;7.00;;
980;SDS011;479;53.514;9.994;2022-11-12T12:43:18;7.80;;;7.10;;
980;SDS011;479;53.514;9.994;2022-11-12T12:46:09;9.33;;;6.50;;
980;SDS011;479;53.514;9.994;2022-11-12T12:48:57;11.50;;;6.77;;
980;SDS011;479;53.514;9.994;2022-11-12T12:51:45;10.23;;;9.00;;
980;SDS011;479;53.514;9.994;2022-11-12T12:57:38;12.10;;;6.67;;
980;SDS011;479;53.514;9.994;2022-11-12T13:00:25;9.20;;;7.37;;
980;SDS011;479;53.514;9.994;2022-11-12T13:06:36;10.60;;;5.43;;
980;SDS011;479;53.514;9.994;2022-11-12T13:09:23;7.53;;;6.37;;
980;SDS011;479;53.514;9.994;2022-11-12T13:12:11;6.80;;;6.10;;
980;SDS011;479;53.514;9.994;2022-11-12T13:15:12;6.33;;;5.73;;
980;SDS011;479;53.514;9.994;2022-11-12T13:17:59;7.13;;;6.37;;
980;SDS011;479;53.514;9.994;2022-11-12T13:21:05;9.53;;;7.37;;
980;SDS011;479;53.514;9.994;2022-11-12T13:23:52;7.33;;;6.23;;
980;SDS011;479;53.514;9.994;2022-11-12T13:26:54;7.77;;;6.63;;
980;SDS011;479;53.514;9.994;2022-11-12T13:29:41;6.07;;;5.43;;
980;SDS011;479;53.514;9.994;2022-11-12T13:32:38;5.90;;;5.40;;
980;SDS011;479;53.514;9.994;2022-11-12T13:35:26;10.30;;;7.00;;
980;SDS011;479;53.514;9.994;2022-11-12T13:38:18;8.40;;;6.07;;
980;SDS011;479;53.514;9.994;2022-11-12T13:41:05;7.60;;;6.90;;
980;SDS011;479;53.514;9.994;2022-11-12T13:43:59;11.77;;;7.37;;
980;SDS011;479;53.514;9.994;2022-11-12T13:46:50;7.83;;;7.03;;
980;SDS011;479;53.514;9.994;2022-11-12T13:49:38;8.43;;;7.53;;
980;SDS011;479;53.514;9.994;2022-11-12T13:52:23;7.13;;;6.40;;
980;SDS011;479;53.514;9.994;2022-11-12T13:55:13;9.17;;;7.07;;
980;SDS011;479;53.514;9.994;2022-11-12T13:58:01;5.30;;;4.80;;
980;SDS011;479;53.514;9.994;2022-11-12T14:00:52;10.90;;;7.03;;
980;SDS011;479;53.514;9.994;2022-11-12T14:03:41;5.67;;;5.17;;
980;SDS011;479;53.514;9.994;2022-11-12T14:06:30;8.63;;;6.43;;
980;SDS011;479;53.514;9.994;2022-11-12T14:09:26;10.00;;;6.50;;
980;SDS011;479;53.514;9.994;2022-11-12T14:12:32;8.07;;;6.63;;
980;SDS011;479;53.514;9.994;2022-11-12T14:15:31;8.87;;;6.50;;
980;SDS011;479;53.514;9.994;2022-11-12T14:18:33;6.63;;;5.80;;
980;SDS011;479;53.514;9.994;2022-11-12T14:21:28;8.77;;;6.50;;
980;SDS011;479;53.514;9.994;2022-11-12T14:24:14;8.33;;;6.87;;
980;SDS011;479;53.514;9.994;2022-11-12T14:27:00;8.23;;;5.60;;
980;SDS011;479;53.514;9.994;2022-11-12T14:29:47;8.63;;;6.50;;
980;SDS011;479;53.514;9.994;2022-11-12T14:32:34;7.67;;;6.07;;
980;SDS011;479;53.514;9.994;2022-11-12T14:35:27;7.73;;;6.87;;
980;SDS011;479;53.514;9.994;2022-11-12T14:38:17;6.60;;;5.87;;
980;SDS011;479;53.514;9.994;2022-11-12T14:41:06;6.23;;;5.30;;
980;SDS011;479;53.514;9.994;2022-11-12T14:43:54;10.23;;;7.30;;
980;SDS011;479;53.514;9.994;2022-11-12T14:46:44;10.77;;;9.30;;
980;SDS011;479;53.514;9.994;2022-11-12T14:49:32;13.33;;;8.60;;
980;SDS011;479;53.514;9.994;2022-11-12T14:52:25;13.60;;;10.60;;
980;SDS011;479;53.514;9.994;2022-11-12T14:55:14;9.80;;;7.80;;
980;SDS011;479;53.514;9.994;2022-11-12T14:58:03;10.73;;;8.43;;
980;SDS011;479;53.514;9.994;2022-11-12T15:00:49;10.03;;;8.80;;
980;SDS011;479;53.514;9.994;2022-11-12T15:03:38;11.70;;;8.80;;
980;SDS011;479;53.514;9.994;2022-11-12T15:06:27;10.30;;;8.40;;
980;SDS011;479;53.514;9.994;2022-11-12T15:09:15;20.43;;;13.40;;
980;SDS011;479;53.514;9.994;2022-11-12T15:12:05;9.27;;;8.07;;
980;SDS011;479;53.514;9.994;2022-11-12T15:15:02;12.33;;;7.87;;
980;SDS011;479;53.514;9.994;2022-11-12T15:17:55;13.20;;;9.87;;
980;SDS011;479;53.514;9.994;2022-11-12T15:20:42;21.70;;;14.63;;
980;SDS011;479;53.514;9.994;2022-11-12T15:23:28;13.70;;;9.70;;
980;SDS011;479;53.514;9.994;2022-11-12T15:26:14;19.60;;;14.67;;
980;SDS011;479;53.514;9.994;2022-11-12T15:29:12;11.33;;;7.97;;
980;SDS011;479;53.514;9.994;2022-11-12T15:35:35;11.70;;;8.80;;
980;SDS011;479;53.514;9.994;2022-11-12T15:38:27;10.17;;;7.60;;
980;SDS011;479;53.514;9.994;2022-11-12T15:41:21;9.63;;;8.53;;
980;SDS011;479;53.514;9.994;2022-11-12T15:44:09;11.30;;;8.73;;
980;SDS011;479;53.514;9.994;2022-11-12T15:46:55;13.10;;;10.07;;
980;SDS011;479;53.514;9.994;2022-11-12T15:49:45;14.00;;;9.03;;
980;SDS011;479;53.514;9.994;2022-11-12T15:52:32;13.43;;;10.57;;
980;SDS011;479;53.514;9.994;2022-11-12T15:55:18;21.30;;;12.03;;
980;SDS011;479;53.514;9.994;2022-11-12T15:58:04;11.73;;;9.00;;
980;SDS011;479;53.514;9.994;2022-11-12T16:00:51;11.33;;;9.93;;
980;SDS011;479;53.514;9.994;2022-11-12T16:03:36;15.33;;;9.40;;
980;SDS011;479;53.514;9.994;2022-11-12T16:06:21;13.30;;;8.63;;
980;SDS011;479;53.514;9.994;2022-11-12T16:09:07;8.57;;;7.67;;
980;SDS011;479;53.514;9.994;2022-11-12T16:11:54;10.33;;;8.40;;
980;SDS011;479;53.514;9.994;2022-11-12T16:14:40;13.50;;;8.97;;
980;SDS011;479;53.514;9.994;2022-11-12T16:17:25;8.30;;;7.40;;
980;SDS011;479;53.514;9.994;2022-11-12T16:20:12;13.07;;;9.17;;
980;SDS011;479;53.514;9.994;2022-11-12T16:22:59;13.07;;;8.60;;
980;SDS011;479;53.514;9.994;2022-11-12T16:25:45;11.10;;;8.20;;
980;SDS011;479;53.514;9.994;2022-11-12T16:28:32;9.57;;;7.57;;
980;SDS011;479;53.514;9.994;2022-11-12T16:31:18;11.57;;;9.00;;
980;SDS011;479;53.514;9.994;2022-11-12T16:34:04;18.47;;;12.40;;
980;SDS011;479;53.514;9.994;2022-11-12T16:36:49;15.60;;;13.00;;
980;SDS011;479;53.514;9.994;2022-11-12T16:39:35;24.70;;;17.70;;
980;SDS011;479;53.514;9.994;2022-11-12T16:42:21;19.93;;;14.10;;
980;SDS011;479;53.514;9.994;2022-11-12T16:45:08;11.83;;;9.40;;
980;SDS011;479;53.514;9.994;2022-11-12T16:47:54;15.87;;;11.40;;
980;SDS011;479;53.514;9.994;2022-11-12T16:50:41;15.37;;;10.87;;
980;SDS011;479;53.514;9.994;2022-11-12T16:53:26;13.70;;;10.90;;
980;SDS011;479;53.514;9.994;2022-11-12T16:56:12;13.90;;;11.33;;
980;SDS011;479;53.514;9.994;2022-11-12T16:59:00;18.13;;;11.50;;
980;SDS011;479;53.514;9.994;2022-11-12T17:01:46;12.60;;;11.20;;
980;SDS011;479;53.514;9.994;2022-11-12T17:04:32;17.27;;;13.40;;
980;SDS011;479;53.514;9.994;2022-11-12T17:07:17;21.80;;;15.93;;
980;SDS011;479;53.514;9.994;2022-11-12T17:10:03;18.90;;;12.30;;
980;SDS011;479;53.514;9.994;2022-11-12T17:12:49;15.50;;;11.47;;
980;SDS011;479;53.514;9.994;2022-11-12T17:15:34;24.10;;;18.50;;
980;SDS011;479;53.514;9.994;2022-11-12T17:18:21;37.87;;;26.90;;
980;SDS011;479;53.514;9.994;2022-11-12T17:21:10;34.27;;;23.73;;
980;SDS011;479;53.514;9.994;2022-11-12T17:23:56;20.13;;;16.57;;
980;SDS011;479;53.514;9.994;2022-11-12T17:26:42;47.30;;;31.53;;
980;SDS011;479;53.514;9.994;2022-11-12T17:29:28;17.97;;;13.60;;
980;SDS011;479;53.514;9.994;2022-11-12T17:32:13;13.80;;;9.70;;
980;SDS011;479;53.514;9.994;2022-11-12T17:34:59;11.83;;;9.23;;
980;SDS011;479;53.514;9.994;2022-11-12T17:37:45;10.17;;;8.50;;
980;SDS011;479;53.514;9.994;2022-11-12T17:40:30;17.10;;;12.30;;
980;SDS011;479;53.514;9.994;2022-11-12T17:43:15;10.70;;;9.60;;
980;SDS011;479;53.514;9.994;2022-11-12T17:46:01;10.50;;;9.07;;
980;SDS011;479;53.514;9.994;2022-11-12T17:48:47;13.53;;;9.77;;
980;SDS011;479;53.514;9.994;2022-11-12T17:51:34;9.33;;;8.20;;
980;SDS011;479;53.514;9.994;2022-11-12T17:54:19;11.30;;;9.20;;
980;SDS011;479;53.514;9.994;2022-11-12T17:57:05;13.57;;;11.40;;
980;SDS011;479;53.514;9.994;2022-11-12T17:59:50;11.90;;;9.00;;
980;SDS011;479;53.514;9.994;2022-11-12T18:02:36;10.27;;;9.07;;
980;SDS011;479;53.514;9.994;2022-11-12T18:05:22;10.60;;;9.50;;